createdAt,value
2023-04-26T00:00:01.267Z,12.93
2023-04-26T00:02:08.545Z,14.55
2023-04-26T00:04:16.770Z,12.27
2023-04-26T00:06:24.204Z,10.75
2023-04-26T00:08:32.036Z,11.90
2023-04-26T00:10:39.317Z,12.95
2023-04-26T00:12:48.497Z,12.73
2023-04-26T00:14:55.528Z,14.77
2023-04-26T00:17:04.394Z,11.43
2023-04-26T00:19:11.678Z,10.68
2023-04-26T00:21:19.211Z,13.32
2023-04-26T00:23:27.379Z,10.43
2023-04-26T00:25:34.934Z,14.20
2023-04-26T00:27:42.198Z,10.93
2023-04-26T00:29:51.394Z,10.35
2023-04-26T00:31:58.594Z,9.60
2023-04-26T00:34:06.305Z,10.32
2023-04-26T00:36:13.648Z,9.77
2023-04-26T00:38:21.077Z,10.02
2023-04-26T00:40:28.176Z,8.15
2023-04-26T00:42:35.551Z,8.10
2023-04-26T00:44:43.549Z,8.98
2023-04-26T00:46:55.285Z,11.68
2023-04-26T00:49:02.723Z,12.40
2023-04-26T00:51:10.363Z,10.68
2023-04-26T00:53:19.455Z,9.70
2023-04-26T00:55:28.201Z,8.65
2023-04-26T00:57:35.697Z,10.15
2023-04-26T00:59:43.956Z,7.93
2023-04-26T01:01:52.979Z,8.73
2023-04-26T01:04:00.787Z,10.23
2023-04-26T01:06:08.315Z,9.30
2023-04-26T01:08:18.362Z,10.82
2023-04-26T01:10:25.630Z,7.35
2023-04-26T01:12:33.543Z,14.52
2023-04-26T01:14:40.827Z,8.73
2023-04-26T01:16:49.553Z,7.88
2023-04-26T01:18:58.369Z,9.13
2023-04-26T01:21:06.992Z,7.60
2023-04-26T01:23:15.812Z,6.53
2023-04-26T01:25:24.417Z,8.65
2023-04-26T01:27:31.290Z,8.30
2023-04-26T01:29:38.938Z,9.15
2023-04-26T01:31:46.115Z,6.93
2023-04-26T01:33:53.247Z,8.25
2023-04-26T01:36:00.104Z,7.82
2023-04-26T01:38:08.938Z,6.60
2023-04-26T01:40:18.171Z,7.95
2023-04-26T01:42:25.258Z,8.77
2023-04-26T01:44:32.220Z,7.53
2023-04-26T01:46:41.373Z,6.50
2023-04-26T01:48:48.394Z,7.15
2023-04-26T01:50:55.722Z,8.43
2023-04-26T01:53:03.204Z,8.73
2023-04-26T01:55:11.772Z,8.98
2023-04-26T01:57:20.274Z,7.30
2023-04-26T01:59:27.920Z,9.07
2023-04-26T02:01:35.172Z,11.68
2023-04-26T02:03:43.134Z,13.57
2023-04-26T02:05:51.562Z,13.73
2023-04-26T02:07:58.950Z,9.35
2023-04-26T02:10:06.337Z,9.10
2023-04-26T02:12:13.779Z,8.07
2023-04-26T02:14:22.651Z,7.43
2023-04-26T02:16:30.184Z,7.15
2023-04-26T02:18:37.781Z,8.40
2023-04-26T02:20:46.764Z,10.90
2023-04-26T02:22:54.193Z,8.05
2023-04-26T02:25:01.657Z,9.57
2023-04-26T02:27:08.918Z,11.35
2023-04-26T02:29:16.514Z,7.93
2023-04-26T02:31:25.422Z,7.13
2023-04-26T02:33:33.296Z,7.72
2023-04-26T02:35:40.506Z,8.85
2023-04-26T02:37:49.941Z,7.60
2023-04-26T02:39:57.378Z,9.07
2023-04-26T02:42:04.919Z,11.73
2023-04-26T02:44:12.408Z,9.80
2023-04-26T02:46:20.485Z,9.60
2023-04-26T02:48:29.699Z,7.55
2023-04-26T02:50:37.347Z,9.57
2023-04-26T02:52:45.276Z,8.63
2023-04-26T02:54:52.728Z,9.98
2023-04-26T02:57:00.821Z,9.13
2023-04-26T02:59:08.259Z,8.40
2023-04-26T03:01:15.902Z,11.15
2023-04-26T03:03:23.944Z,9.70
2023-04-26T03:05:33.183Z,11.63
2023-04-26T03:07:40.781Z,10.70
2023-04-26T03:09:48.361Z,9.05
2023-04-26T03:11:57.181Z,9.80
2023-04-26T03:14:04.299Z,10.35
2023-04-26T03:16:12.288Z,11.38
2023-04-26T03:18:19.813Z,10.20
2023-04-26T03:20:27.760Z,9.52
2023-04-26T03:22:36.933Z,10.02
2023-04-26T03:24:45.242Z,11.43
2023-04-26T03:26:52.641Z,11.80
2023-04-26T03:29:00.160Z,11.45
2023-04-26T03:31:07.300Z,12.18
2023-04-26T03:33:16.273Z,13.77
2023-04-26T03:35:23.454Z,11.38
2023-04-26T03:37:30.790Z,12.23
2023-04-26T03:39:44.971Z,10.20
2023-04-26T03:41:54.231Z,10.95
2023-04-26T03:44:03.085Z,13.02
2023-04-26T03:46:10.750Z,11.02
2023-04-26T03:48:18.833Z,13.00
2023-04-26T03:50:26.799Z,11.45
2023-04-26T03:52:34.173Z,11.68
2023-04-26T03:54:44.680Z,12.15
2023-04-26T03:56:54.536Z,12.50
2023-04-26T03:59:02.269Z,10.27
2023-04-26T04:01:11.396Z,13.45
2023-04-26T04:03:19.267Z,13.32
2023-04-26T04:05:26.560Z,10.88
2023-04-26T04:07:34.633Z,12.75
2023-04-26T04:09:43.548Z,12.00
2023-04-26T04:11:51.191Z,13.25
2023-04-26T04:13:58.594Z,14.05
2023-04-26T04:16:06.531Z,12.73
2023-04-26T04:18:13.847Z,14.45
2023-04-26T04:20:22.378Z,12.68
2023-04-26T04:22:29.811Z,12.57
2023-04-26T04:24:37.454Z,13.25
2023-04-26T04:26:46.430Z,13.50
2023-04-26T04:28:54.858Z,15.27
2023-04-26T04:31:02.756Z,16.10
2023-04-26T04:33:10.475Z,15.43
2023-04-26T04:35:17.715Z,16.85
2023-04-26T04:37:26.534Z,36.08
2023-04-26T04:39:33.919Z,18.63
2023-04-26T04:41:41.765Z,14.02
2023-04-26T04:43:51.104Z,12.98
2023-04-26T04:45:58.403Z,15.13
2023-04-26T04:48:06.263Z,14.43
2023-04-26T04:50:17.185Z,13.30
2023-04-26T04:52:24.738Z,13.60
2023-04-26T04:54:31.865Z,15.00
2023-04-26T04:56:39.360Z,14.88
2023-04-26T04:58:47.341Z,13.00
2023-04-26T05:00:58.025Z,13.73
2023-04-26T05:03:11.033Z,14.25
2023-04-26T05:05:18.845Z,12.35
2023-04-26T05:07:27.381Z,12.38
2023-04-26T05:09:36.484Z,12.77
2023-04-26T05:11:43.998Z,13.70
2023-04-26T05:13:53.506Z,13.80
2023-04-26T05:16:02.974Z,15.43
2023-04-26T05:18:10.277Z,12.43
2023-04-26T05:20:18.127Z,12.75
2023-04-26T05:22:26.483Z,14.98
2023-04-26T05:24:34.565Z,14.57
2023-04-26T05:26:41.868Z,12.85
2023-04-26T05:29:18.185Z,15.38
2023-04-26T05:31:47.170Z,12.85
2023-04-26T05:34:14.326Z,15.27
2023-04-26T05:36:22.333Z,14.00
2023-04-26T05:38:29.511Z,18.98
2023-04-26T05:40:36.908Z,34.13
2023-04-26T05:42:45.066Z,15.68
2023-04-26T05:44:52.696Z,18.25
2023-04-26T05:47:01.975Z,17.98
2023-04-26T05:49:09.630Z,15.63
2023-04-26T05:51:17.106Z,17.77
2023-04-26T05:53:24.597Z,12.90
2023-04-26T05:55:32.133Z,12.35
2023-04-26T05:57:39.680Z,13.25
2023-04-26T05:59:47.572Z,20.70
2023-04-26T06:01:56.006Z,17.15
2023-04-26T06:04:05.430Z,15.40
2023-04-26T06:06:21.759Z,17.15
2023-04-26T06:08:29.468Z,12.80
2023-04-26T06:10:38.633Z,17.30
2023-04-26T06:12:46.390Z,13.88
2023-04-26T06:14:54.069Z,18.45
2023-04-26T06:17:04.717Z,13.88
2023-04-26T06:19:13.756Z,13.43
2023-04-26T06:21:21.100Z,13.93
2023-04-26T06:23:28.531Z,14.05
2023-04-26T06:25:36.072Z,14.25
2023-04-26T06:27:43.561Z,15.93
2023-04-26T06:29:51.561Z,15.30
2023-04-26T06:31:59.767Z,15.32
2023-04-26T06:34:08.428Z,13.98
2023-04-26T06:36:18.387Z,16.17
2023-04-26T06:38:25.460Z,14.77
2023-04-26T06:40:32.913Z,14.43
2023-04-26T06:42:40.132Z,14.75
2023-04-26T06:45:18.549Z,15.93
2023-04-26T06:47:26.377Z,16.00
2023-04-26T06:49:38.192Z,16.50
2023-04-26T06:51:47.277Z,15.25
2023-04-26T06:53:55.401Z,16.30
2023-04-26T06:56:02.549Z,17.92
2023-04-26T06:58:10.173Z,17.27
2023-04-26T07:00:18.801Z,16.80
2023-04-26T07:02:26.667Z,15.32
2023-04-26T07:04:34.345Z,16.45
2023-04-26T07:06:43.113Z,17.67
2023-04-26T07:08:52.589Z,16.73
2023-04-26T07:11:00.344Z,17.05
2023-04-26T07:13:09.376Z,19.08
2023-04-26T07:15:17.067Z,16.42
2023-04-26T07:17:24.292Z,18.98
2023-04-26T07:19:31.794Z,18.50
2023-04-26T07:21:39.067Z,17.42
2023-04-26T07:23:46.615Z,16.33
2023-04-26T07:25:55.790Z,17.80
2023-04-26T07:28:04.405Z,15.55
2023-04-26T07:30:12.967Z,16.27
2023-04-26T07:32:20.438Z,16.73
2023-04-26T07:34:27.582Z,21.23
2023-04-26T07:36:35.021Z,17.85
2023-04-26T07:38:42.253Z,21.95
2023-04-26T07:40:49.384Z,18.75
2023-04-26T07:42:58.000Z,20.77
2023-04-26T07:45:05.476Z,18.27
2023-04-26T07:47:16.818Z,20.85
2023-04-26T07:51:30.412Z,19.00
2023-04-26T07:53:37.799Z,19.95
2023-04-26T07:55:45.083Z,18.65
2023-04-26T07:57:52.678Z,26.98
2023-04-26T08:00:02.417Z,20.42
2023-04-26T08:02:24.966Z,21.08
2023-04-26T08:04:37.716Z,19.83
2023-04-26T08:06:46.234Z,20.80
2023-04-26T08:08:54.693Z,18.52
2023-04-26T08:11:02.182Z,18.25
2023-04-26T08:13:09.260Z,20.80
2023-04-26T08:15:18.639Z,17.33
2023-04-26T08:17:25.824Z,19.23
2023-04-26T08:19:34.504Z,19.98
2023-04-26T08:21:41.774Z,19.52
2023-04-26T08:23:49.415Z,19.42
2023-04-26T08:25:56.597Z,21.63
2023-04-26T08:28:04.241Z,18.85
2023-04-26T08:30:13.164Z,18.15
2023-04-26T08:32:22.215Z,20.17
2023-04-26T08:34:30.443Z,19.17
2023-04-26T08:36:41.016Z,17.73
2023-04-26T08:38:48.236Z,18.30
2023-04-26T08:40:57.323Z,19.90
2023-04-26T08:43:04.756Z,18.45
2023-04-26T08:45:14.181Z,20.08
2023-04-26T08:47:25.846Z,18.58
2023-04-26T08:49:43.304Z,21.05
2023-04-26T08:51:53.553Z,18.33
2023-04-26T08:54:04.135Z,19.75
2023-04-26T08:56:13.810Z,18.38
2023-04-26T08:58:22.979Z,17.77
2023-04-26T09:00:30.368Z,18.23
2023-04-26T09:02:40.259Z,20.13
2023-04-26T09:04:47.886Z,19.15
2023-04-26T09:06:56.675Z,18.92
2023-04-26T09:09:06.465Z,18.52
2023-04-26T09:11:14.007Z,19.55
2023-04-26T09:13:21.242Z,18.92
2023-04-26T09:15:29.505Z,17.85
2023-04-26T09:17:39.998Z,17.08
2023-04-26T09:19:47.648Z,18.57
2023-04-26T09:21:54.982Z,19.95
2023-04-26T09:24:05.298Z,19.73
2023-04-26T09:26:22.838Z,17.90
2023-04-26T09:28:30.709Z,18.30
2023-04-26T09:30:42.861Z,19.75
2023-04-26T09:32:57.190Z,21.05
2023-04-26T09:35:05.668Z,20.83
2023-04-26T09:37:15.870Z,21.08
2023-04-26T09:39:36.516Z,18.52
2023-04-26T09:41:49.948Z,18.50
2023-04-26T09:43:57.014Z,18.00
2023-04-26T09:46:04.495Z,19.42
2023-04-26T09:48:24.135Z,18.95
2023-04-26T09:50:33.531Z,19.52
2023-04-26T09:52:47.253Z,18.98
2023-04-26T09:54:56.846Z,18.23
2023-04-26T09:57:04.639Z,19.95
2023-04-26T09:59:12.649Z,19.30
2023-04-26T10:01:20.976Z,21.92
2023-04-26T10:03:30.398Z,24.55
2023-04-26T10:05:37.409Z,22.08
2023-04-26T10:07:45.102Z,19.80
2023-04-26T10:09:53.053Z,19.35
2023-04-26T10:12:01.516Z,21.20
2023-04-26T10:14:09.363Z,19.30
2023-04-26T10:16:16.926Z,20.45
2023-04-26T10:18:24.439Z,21.67
2023-04-26T10:20:34.138Z,21.58
2023-04-26T10:22:48.993Z,27.38
2023-04-26T10:24:58.738Z,24.48
2023-04-26T10:27:06.484Z,27.50
2023-04-26T10:29:14.172Z,22.83
2023-04-26T10:31:21.335Z,25.42
2023-04-26T10:33:29.357Z,24.25
2023-04-26T10:35:39.255Z,26.52
2023-04-26T10:38:13.317Z,38.05
2023-04-26T10:40:30.531Z,34.92
2023-04-26T10:42:38.784Z,31.98
2023-04-26T10:44:47.507Z,37.92
2023-04-26T10:46:58.322Z,34.53
2023-04-26T10:49:20.914Z,35.72
2023-04-26T10:51:29.787Z,31.27
2023-04-26T10:54:03.294Z,31.83
2023-04-26T10:56:11.184Z,32.22
2023-04-26T10:58:31.236Z,29.73
2023-04-26T11:00:38.660Z,28.27
2023-04-26T11:02:59.405Z,27.65
2023-04-26T11:05:08.596Z,24.83
2023-04-26T11:07:18.384Z,22.10
2023-04-26T11:09:51.875Z,22.90
2023-04-26T11:11:59.468Z,28.92
2023-04-26T11:14:06.904Z,27.75
2023-04-26T11:16:15.319Z,26.67
2023-04-26T11:18:23.979Z,26.02
2023-04-26T11:20:34.955Z,27.35
2023-04-26T11:22:46.539Z,26.05
2023-04-26T11:24:54.393Z,22.38
2023-04-26T11:27:01.648Z,28.08
2023-04-26T11:29:14.532Z,25.65
2023-04-26T11:31:23.178Z,24.75
2023-04-26T11:33:30.585Z,26.30
2023-04-26T11:35:39.507Z,25.15
2023-04-26T11:37:50.529Z,22.35
2023-04-26T11:39:57.874Z,22.38
2023-04-26T11:42:09.915Z,23.08
2023-04-26T11:46:25.325Z,23.80
2023-04-26T11:48:33.586Z,23.60
2023-04-26T11:50:42.430Z,26.00
2023-04-26T11:52:51.244Z,25.30
2023-04-26T11:55:07.243Z,29.45
2023-04-26T11:57:21.326Z,29.65
2023-04-26T11:59:30.199Z,24.30
2023-04-26T12:01:37.545Z,24.48
2023-04-26T12:03:45.003Z,26.75
2023-04-26T12:05:58.516Z,26.70
2023-04-26T12:08:07.729Z,26.13
2023-04-26T12:10:21.984Z,26.33
2023-04-26T12:12:29.669Z,25.90
2023-04-26T12:14:37.573Z,27.63
2023-04-26T12:16:46.867Z,28.13
2023-04-26T12:18:54.762Z,30.75
2023-04-26T12:21:02.850Z,28.85
2023-04-26T12:23:12.747Z,26.05
2023-04-26T12:25:22.336Z,25.85
2023-04-26T12:27:29.567Z,26.15
2023-04-26T12:29:37.420Z,25.50
2023-04-26T12:31:44.775Z,27.30
2023-04-26T12:33:52.393Z,27.70
2023-04-26T12:36:01.366Z,31.70
2023-04-26T12:38:10.895Z,29.55
2023-04-26T12:40:20.701Z,30.42
2023-04-26T12:42:28.136Z,25.95
2023-04-26T12:44:35.263Z,27.83
2023-04-26T12:46:42.735Z,27.50
2023-04-26T12:48:51.216Z,25.25
2023-04-26T12:50:58.297Z,32.38
2023-04-26T12:53:05.376Z,29.08
2023-04-26T12:55:15.320Z,22.63
2023-04-26T12:57:22.913Z,28.63
2023-04-26T12:59:29.993Z,28.15
2023-04-26T13:01:37.228Z,29.02
2023-04-26T13:03:44.569Z,28.92
2023-04-26T13:05:51.998Z,30.65
2023-04-26T13:07:59.232Z,27.30
2023-04-26T13:10:06.537Z,31.50
2023-04-26T13:12:15.881Z,28.23
2023-04-26T13:14:24.203Z,30.23
2023-04-26T13:16:32.063Z,31.88
2023-04-26T13:18:39.193Z,29.38
2023-04-26T13:20:46.724Z,31.08
2023-04-26T13:22:54.123Z,29.88
2023-04-26T13:25:01.599Z,30.05
2023-04-26T13:27:08.932Z,29.15
2023-04-26T13:29:18.060Z,27.58
2023-04-26T13:31:25.929Z,30.13
2023-04-26T13:33:33.706Z,31.75
2023-04-26T13:35:40.742Z,30.13
2023-04-26T13:37:48.269Z,26.83
2023-04-26T13:39:55.692Z,28.13
2023-04-26T13:42:04.937Z,28.38
2023-04-26T13:44:12.121Z,27.65
2023-04-26T13:46:21.873Z,31.52
2023-04-26T13:48:29.012Z,32.60
2023-04-26T13:50:36.479Z,32.75
2023-04-26T13:52:43.661Z,31.90
2023-04-26T13:54:51.249Z,31.55
2023-04-26T13:56:59.265Z,34.45
2023-04-26T13:59:07.621Z,30.73
2023-04-26T14:01:15.099Z,32.95
2023-04-26T14:03:24.454Z,32.50
2023-04-26T14:05:31.885Z,33.15
2023-04-26T14:07:39.369Z,31.25
2023-04-26T14:09:46.595Z,30.65
2023-04-26T14:12:06.545Z,27.27
2023-04-26T14:14:15.392Z,31.92
2023-04-26T14:16:22.825Z,35.95
2023-04-26T14:18:31.856Z,34.60
2023-04-26T14:20:39.909Z,29.08
2023-04-26T14:22:47.038Z,32.55
2023-04-26T14:24:54.431Z,33.65
2023-04-26T14:27:04.224Z,30.63
2023-04-26T14:29:11.559Z,32.22
2023-04-26T14:31:19.539Z,35.55
2023-04-26T14:33:27.048Z,36.40
2023-04-26T14:35:36.836Z,30.10
2023-04-26T14:37:44.274Z,31.45
2023-04-26T14:39:51.533Z,34.42
2023-04-26T14:41:59.201Z,41.25
2023-04-26T14:44:06.536Z,36.00
2023-04-26T14:46:14.160Z,34.28
2023-04-26T14:48:21.511Z,30.05
2023-04-26T14:50:29.257Z,33.78
2023-04-26T14:52:40.532Z,34.92
2023-04-26T14:54:47.880Z,41.05
2023-04-26T14:56:55.048Z,35.65
2023-04-26T14:59:02.799Z,32.25
2023-04-26T15:01:10.321Z,38.38
2023-04-26T15:03:18.218Z,39.25
2023-04-26T15:05:25.676Z,44.42
2023-04-26T15:07:33.360Z,42.10
2023-04-26T15:09:42.389Z,40.75
2023-04-26T15:11:49.980Z,39.00
2023-04-26T15:13:57.071Z,40.00
2023-04-26T15:16:08.019Z,35.50
2023-04-26T15:18:15.681Z,36.73
2023-04-26T15:20:23.518Z,37.72
2023-04-26T15:22:31.064Z,39.17
2023-04-26T15:24:42.080Z,38.15
2023-04-26T15:26:49.209Z,40.63
2023-04-26T15:28:56.751Z,41.08
2023-04-26T15:31:07.132Z,37.42
2023-04-26T15:33:15.649Z,42.05
2023-04-26T15:35:23.162Z,37.20
2023-04-26T15:37:30.646Z,39.88
2023-04-26T15:39:37.880Z,44.30
2023-04-26T15:41:46.909Z,39.83
2023-04-26T15:43:57.826Z,43.03
2023-04-26T15:46:05.159Z,46.22
2023-04-26T15:48:13.835Z,38.95
2023-04-26T15:50:21.275Z,38.38
2023-04-26T15:52:28.393Z,35.83
2023-04-26T15:54:35.832Z,35.90
2023-04-26T15:56:44.936Z,41.05
2023-04-26T15:58:52.704Z,40.67
2023-04-26T16:00:59.942Z,41.50
2023-04-26T16:03:08.256Z,40.50
2023-04-26T16:05:15.696Z,44.58
2023-04-26T16:07:23.650Z,39.22
2023-04-26T16:09:31.531Z,45.20
2023-04-26T16:11:39.172Z,47.60
2023-04-26T16:13:52.913Z,51.95
2023-04-26T16:16:00.807Z,65.05
2023-04-26T16:18:08.104Z,81.20
2023-04-26T16:20:16.298Z,74.07
2023-04-26T16:22:23.534Z,82.40
2023-04-26T16:24:31.126Z,74.30
2023-04-26T16:26:38.822Z,70.40
2023-04-26T16:28:47.994Z,69.65
2023-04-26T16:30:55.125Z,84.53
2023-04-26T16:33:02.482Z,88.05
2023-04-26T16:35:11.637Z,77.68
2023-04-26T16:37:18.927Z,67.25
2023-04-26T16:39:27.132Z,57.65
2023-04-26T16:41:34.207Z,57.42
2023-04-26T16:43:41.753Z,61.30
2023-04-26T16:45:50.837Z,59.95
2023-04-26T16:47:58.400Z,57.60
2023-04-26T16:50:06.264Z,62.58
2023-04-26T16:52:13.599Z,54.10
2023-04-26T16:54:20.681Z,59.88
2023-04-26T16:56:28.371Z,60.08
2023-04-26T16:58:35.731Z,58.75
2023-04-26T17:00:43.245Z,50.83
2023-04-26T17:02:53.330Z,49.30
2023-04-26T17:05:01.275Z,52.70
2023-04-26T17:07:08.588Z,47.65
2023-04-26T17:09:16.272Z,45.53
2023-04-26T17:11:23.656Z,48.30
2023-04-26T17:13:34.225Z,49.35
2023-04-26T17:15:41.931Z,42.63
2023-04-26T17:17:51.805Z,46.75
2023-04-26T17:19:59.001Z,43.60
2023-04-26T17:22:07.347Z,43.85
2023-04-26T17:24:14.577Z,47.28
2023-04-26T17:26:22.999Z,42.30
2023-04-26T17:28:30.267Z,41.50
2023-04-26T17:30:37.867Z,41.17
2023-04-26T17:32:45.004Z,41.72
2023-04-26T17:34:53.917Z,49.42
2023-04-26T17:37:01.049Z,43.25
2023-04-26T17:39:08.548Z,46.78
2023-04-26T17:41:16.128Z,42.42
2023-04-26T17:43:23.729Z,44.17
2023-04-26T17:45:31.130Z,38.83
2023-04-26T17:47:38.734Z,42.33
2023-04-26T17:49:45.830Z,40.75
2023-04-26T17:51:54.803Z,43.75
2023-04-26T17:54:01.990Z,42.88
2023-04-26T17:56:11.007Z,40.20
2023-04-26T17:58:18.713Z,47.28
2023-04-26T18:00:26.752Z,41.17
2023-04-26T18:02:34.562Z,42.22
2023-04-26T18:04:42.400Z,40.25
2023-04-26T18:06:50.294Z,40.60
2023-04-26T18:08:59.267Z,42.80
2023-04-26T18:11:06.817Z,43.67
2023-04-26T18:13:14.193Z,46.63
2023-04-26T18:15:21.784Z,39.65
2023-04-26T18:17:28.982Z,41.13
2023-04-26T18:19:36.248Z,38.05
2023-04-26T18:21:43.327Z,39.60
2023-04-26T18:23:50.972Z,39.88
2023-04-26T18:25:59.992Z,36.85
2023-04-26T18:28:09.631Z,36.05
2023-04-26T18:30:19.168Z,36.17
2023-04-26T18:32:26.823Z,33.58
2023-04-26T18:34:33.951Z,31.15
2023-04-26T18:36:41.332Z,33.42
2023-04-26T18:38:48.564Z,33.42
2023-04-26T18:40:56.054Z,32.60
2023-04-26T18:43:05.079Z,28.83
2023-04-26T18:45:13.288Z,28.40
2023-04-26T18:47:20.413Z,28.13
2023-04-26T18:49:28.366Z,30.73
2023-04-26T18:51:35.651Z,29.35
2023-04-26T18:53:43.237Z,27.38
2023-04-26T18:55:50.777Z,28.92
2023-04-26T18:57:58.112Z,26.95
2023-04-26T19:00:08.928Z,25.30
2023-04-26T19:02:16.524Z,27.30
2023-04-26T19:04:24.139Z,28.10
2023-04-26T19:06:32.625Z,22.15
2023-04-26T19:08:39.762Z,26.58
2023-04-26T19:10:47.144Z,25.90
2023-04-26T19:12:54.375Z,23.65
2023-04-26T19:15:01.817Z,27.13
2023-04-26T19:17:10.584Z,26.88
2023-04-26T19:19:18.019Z,24.52
2023-04-26T19:21:25.103Z,23.52
2023-04-26T19:23:32.387Z,25.83
2023-04-26T19:25:39.779Z,26.13
2023-04-26T19:27:47.629Z,25.45
2023-04-26T19:29:54.730Z,24.10
2023-04-26T19:32:05.461Z,28.30
2023-04-26T19:34:14.539Z,26.15
2023-04-26T19:36:22.182Z,28.40
2023-04-26T19:38:29.514Z,25.88
2023-04-26T19:40:37.003Z,30.83
2023-04-26T19:42:44.083Z,22.23
2023-04-26T19:44:51.520Z,22.10
2023-04-26T19:46:58.759Z,22.95
2023-04-26T19:49:06.458Z,21.80
2023-04-26T19:51:19.265Z,22.30
2023-04-26T19:53:26.606Z,20.73
2023-04-26T19:55:33.886Z,22.25
2023-04-26T19:57:42.142Z,21.08
2023-04-26T19:59:49.392Z,19.60
2023-04-26T20:01:56.886Z,18.83
2023-04-26T20:04:04.696Z,16.38
2023-04-26T20:06:15.125Z,23.45
2023-04-26T20:08:22.359Z,18.67
2023-04-26T20:10:29.947Z,17.27
2023-04-26T20:12:38.043Z,16.10
2023-04-26T20:14:45.632Z,16.58
2023-04-26T20:16:53.099Z,21.10
2023-04-26T20:19:00.680Z,16.70
2023-04-26T20:21:07.896Z,17.88
2023-04-26T20:23:17.019Z,16.33
2023-04-26T20:25:24.254Z,18.77
2023-04-26T20:27:31.795Z,13.38
2023-04-26T20:29:39.127Z,14.50
2023-04-26T20:31:46.632Z,14.90
2023-04-26T20:33:54.573Z,12.98
2023-04-26T20:36:02.057Z,12.55
2023-04-26T20:38:09.478Z,11.65
2023-04-26T20:40:18.674Z,11.00
2023-04-26T20:42:26.004Z,16.35
2023-04-26T20:44:33.596Z,11.93
2023-04-26T20:46:40.935Z,10.85
2023-04-26T20:48:48.629Z,14.18
2023-04-26T20:50:58.117Z,12.25
2023-04-26T20:53:06.474Z,14.07
2023-04-26T20:55:13.911Z,12.07
2023-04-26T20:57:23.040Z,15.18
2023-04-26T20:59:30.322Z,18.70
2023-04-26T21:01:37.926Z,12.55
2023-04-26T21:03:45.337Z,11.43
2023-04-26T21:05:52.794Z,11.85
2023-04-26T21:08:00.080Z,11.27
2023-04-26T21:10:07.919Z,12.85
2023-04-26T21:12:15.611Z,13.52
2023-04-26T21:14:25.063Z,11.55
2023-04-26T21:16:32.438Z,13.07
2023-04-26T21:18:39.923Z,12.23
2023-04-26T21:20:47.261Z,13.40
2023-04-26T21:22:54.542Z,11.32
2023-04-26T21:25:01.825Z,13.68
2023-04-26T21:27:09.372Z,12.10
2023-04-26T21:29:16.546Z,12.45
2023-04-26T21:31:25.971Z,11.07
2023-04-26T21:33:33.728Z,14.18
2023-04-26T21:35:41.112Z,10.80
2023-04-26T21:37:48.651Z,11.52
2023-04-26T21:39:55.882Z,13.10
2023-04-26T21:42:04.501Z,10.68
2023-04-26T21:44:12.154Z,13.80
2023-04-26T21:46:19.606Z,12.52
2023-04-26T21:48:28.658Z,12.20
2023-04-26T21:50:36.144Z,11.20
2023-04-26T21:52:43.479Z,10.25
2023-04-26T21:54:52.713Z,11.55
2023-04-26T21:57:00.172Z,9.65
2023-04-26T21:59:07.986Z,8.80
2023-04-26T22:01:17.888Z,9.75
2023-04-26T22:03:27.616Z,9.50
2023-04-26T22:05:35.330Z,8.65
2023-04-26T22:07:42.557Z,12.30
2023-04-26T22:09:49.847Z,9.18
2023-04-26T22:11:57.283Z,11.32
2023-04-26T22:14:04.616Z,12.93
2023-04-26T22:16:12.257Z,10.27
2023-04-26T22:18:19.442Z,10.32
2023-04-26T22:20:28.465Z,8.25
2023-04-26T22:22:35.529Z,12.73
2023-04-26T22:24:42.988Z,9.88
2023-04-26T22:26:50.318Z,9.90
2023-04-26T22:28:57.755Z,9.85
2023-04-26T22:31:04.942Z,8.02
2023-04-26T22:33:13.095Z,8.05
2023-04-26T22:35:20.169Z,11.15
2023-04-26T22:37:29.304Z,9.25
2023-04-26T22:39:36.579Z,10.35
2023-04-26T22:41:44.070Z,13.68
2023-04-26T22:43:53.241Z,10.65
2023-04-26T22:46:00.980Z,12.10
2023-04-26T22:48:08.464Z,11.98
2023-04-26T22:50:16.279Z,13.13
2023-04-26T22:52:31.334Z,9.18
2023-04-26T22:54:41.236Z,11.35
2023-04-26T22:56:48.505Z,11.13
2023-04-26T22:58:55.960Z,13.27
2023-04-26T23:01:03.054Z,9.85
2023-04-26T23:03:10.863Z,11.57
2023-04-26T23:05:18.171Z,10.65
2023-04-26T23:07:25.607Z,12.52
2023-04-26T23:09:32.876Z,13.15
2023-04-26T23:11:42.054Z,11.95
2023-04-26T23:13:50.327Z,13.00
2023-04-26T23:15:58.073Z,11.30
2023-04-26T23:18:05.548Z,11.40
2023-04-26T23:20:16.893Z,12.50
2023-04-26T23:22:24.175Z,11.80
2023-04-26T23:24:31.786Z,10.73
2023-04-26T23:26:38.907Z,11.07
2023-04-26T23:28:47.825Z,13.27
2023-04-26T23:30:54.997Z,10.32
2023-04-26T23:33:02.298Z,11.15
2023-04-26T23:35:10.589Z,11.70
2023-04-26T23:37:18.118Z,12.13
2023-04-26T23:39:25.413Z,9.90
2023-04-26T23:41:32.903Z,10.27
2023-04-26T23:43:40.120Z,9.32
2023-04-26T23:45:49.823Z,9.13
2023-04-26T23:47:57.211Z,13.20
2023-04-26T23:50:05.008Z,10.27
2023-04-26T23:52:12.558Z,14.23
2023-04-26T23:54:20.038Z,12.35
2023-04-26T23:56:27.476Z,8.88
2023-04-26T23:58:35.226Z,8.40
